Terminal Aerodrome Forecast
Issued by NWS

Home | Current Version | Previous Version | Text Only | Print | Product List | Glossary Off
Versions: 1 2 3 4 5 6 7 8 9 10 11 12 13 14 15 16

000
FTUS43 KBIS 101100
TAFMOT
TAF
KMOT 101130Z 1012/1112 17014KT 5SM FU SCT120
     FM101500 16013G22KT P6SM BKN120
     FM110000 18012KT P6SM VCTS BKN040CB
     FM110400 30007KT P6SM SCT060=

USA.gov is the U.S. government's official web portal to all federal, state and local government web resources and services.